createdAt,value
2022-10-06T00:09:37.069Z,204.87
2022-10-06T00:19:41.682Z,201.60
2022-10-06T00:29:44.896Z,209.37
2022-10-06T00:39:49.468Z,206.83
2022-10-06T00:49:54.217Z,198.30
2022-10-06T00:59:59.259Z,204.53
2022-10-06T01:10:02.731Z,204.33
2022-10-06T01:20:11.163Z,199.17
2022-10-06T01:30:20.445Z,204.40
2022-10-06T01:40:25.613Z,201.10
2022-10-06T01:50:30.506Z,209.20
2022-10-06T02:00:33.952Z,210.40
2022-10-06T02:10:38.709Z,200.07
2022-10-06T02:20:47.781Z,208.67
2022-10-06T02:30:52.507Z,206.13
2022-10-06T02:40:56.912Z,205.00
2022-10-06T02:51:03.282Z,209.37
2022-10-06T03:01:09.426Z,206.17
2022-10-06T03:11:14.915Z,205.90
2022-10-06T03:21:19.515Z,207.70
2022-10-06T03:31:26.627Z,206.33
2022-10-06T03:41:32.864Z,203.30
2022-10-06T03:51:41.064Z,194.93
2022-10-06T04:01:53.244Z,198.93
2022-10-06T04:12:12.898Z,198.40
2022-10-06T04:22:18.800Z,194.10
2022-10-06T04:32:24.506Z,198.07
2022-10-06T04:42:34.639Z,200.70
2022-10-06T04:52:41.010Z,203.10
2022-10-06T05:02:44.418Z,202.77
2022-10-06T05:12:49.405Z,196.97
2022-10-06T05:22:52.712Z,193.60
2022-10-06T05:32:57.553Z,197.00
2022-10-06T05:43:01.253Z,204.67
2022-10-06T05:53:06.293Z,201.60
2022-10-06T06:03:10.656Z,214.03
2022-10-06T06:13:21.325Z,203.67
2022-10-06T06:23:34.652Z,213.73
2022-10-06T06:33:41.759Z,230.67
2022-10-06T06:43:46.930Z,220.77
2022-10-06T06:54:02.685Z,233.90
2022-10-06T07:04:08.034Z,236.50
2022-10-06T07:14:14.520Z,248.50
2022-10-06T07:24:40.082Z,233.97
2022-10-06T07:34:44.870Z,229.73
2022-10-06T07:45:08.908Z,234.67
2022-10-06T07:55:18.294Z,224.20
2022-10-06T08:05:41.992Z,219.23
2022-10-06T08:15:47.472Z,217.63
2022-10-06T08:25:53.669Z,215.60
2022-10-06T08:36:04.953Z,215.68
2022-10-06T08:46:09.767Z,211.75
2022-10-06T08:56:19.251Z,202.07
2022-10-06T09:06:42.520Z,206.90
2022-10-06T09:16:54.824Z,213.32
2022-10-06T09:27:00.209Z,217.82
2022-10-06T09:37:08.011Z,215.10
2022-10-06T09:47:45.228Z,212.70
2022-10-06T09:57:52.667Z,212.07
2022-10-06T10:08:10.157Z,210.73
2022-10-06T10:18:17.153Z,200.70
2022-10-06T10:28:47.467Z,199.85
2022-10-06T10:38:52.656Z,194.80
2022-10-06T10:49:05.130Z,186.23
2022-10-06T10:59:18.227Z,185.65
2022-10-06T11:09:29.332Z,177.48
2022-10-06T11:19:48.755Z,174.25
2022-10-06T11:30:04.262Z,180.43
2022-10-06T11:40:31.714Z,180.38
2022-10-06T11:50:36.632Z,177.75
2022-10-06T12:00:50.804Z,179.13
2022-10-06T12:10:54.084Z,181.93
2022-10-06T12:21:11.669Z,180.93
2022-10-06T12:31:38.474Z,175.57
2022-10-06T12:42:03.845Z,192.38
2022-10-06T12:52:38.152Z,208.68
2022-10-06T13:02:45.712Z,210.10
2022-10-06T13:12:52.094Z,200.40
2022-10-06T13:23:01.855Z,200.02
2022-10-06T13:33:05.401Z,191.25
2022-10-06T13:43:19.507Z,194.77
2022-10-06T13:53:26.515Z,190.40
2022-10-06T14:13:48.520Z,189.73
2022-10-06T14:23:54.474Z,194.90
2022-10-06T14:33:58.066Z,210.35
2022-10-06T14:44:06.260Z,212.63
2022-10-06T14:54:10.840Z,215.20
2022-10-06T15:04:18.836Z,215.97
2022-10-06T15:14:23.101Z,211.87
2022-10-06T15:24:27.864Z,211.87
2022-10-06T15:34:34.397Z,212.97
2022-10-06T15:44:39.203Z,215.40
2022-10-06T15:54:43.829Z,210.90
2022-10-06T16:05:06.078Z,211.40
2022-10-06T16:15:10.364Z,212.33
2022-10-06T16:25:15.326Z,218.97
2022-10-06T16:35:22.984Z,217.00
2022-10-06T16:45:30.927Z,213.47
2022-10-06T16:55:34.165Z,218.60
2022-10-06T17:05:39.343Z,218.07
2022-10-06T17:15:42.599Z,226.77
2022-10-06T17:25:47.296Z,216.80
2022-10-06T17:35:51.819Z,224.60
2022-10-06T17:45:56.544Z,221.60
2022-10-06T17:56:03.975Z,220.83
2022-10-06T18:06:11.590Z,219.30
2022-10-06T18:16:17.733Z,217.87
2022-10-06T18:26:22.656Z,233.97
2022-10-06T18:36:26.553Z,225.57
2022-10-06T18:46:58.157Z,217.87
2022-10-06T18:57:01.538Z,224.23
2022-10-06T19:07:06.473Z,220.40
2022-10-06T19:17:14.035Z,220.63
2022-10-06T19:27:24.392Z,227.13
2022-10-06T19:37:28.658Z,226.27
2022-10-06T19:47:33.304Z,228.23
2022-10-06T19:57:36.786Z,227.37
2022-10-06T20:07:42.359Z,231.07
2022-10-06T20:17:47.277Z,231.43
2022-10-06T20:27:52.163Z,227.80
2022-10-06T20:37:55.399Z,227.37
2022-10-06T20:48:00.213Z,223.67
2022-10-06T20:58:04.247Z,228.20
2022-10-06T21:08:08.841Z,226.40
2022-10-06T21:18:12.094Z,229.50
2022-10-06T21:28:18.526Z,227.77
2022-10-06T21:38:21.802Z,223.07
2022-10-06T21:48:26.444Z,219.87
2022-10-06T21:58:29.693Z,227.57
2022-10-06T22:08:34.909Z,225.93
2022-10-06T22:18:39.741Z,225.37
2022-10-06T22:28:49.757Z,226.80
2022-10-06T22:38:53.156Z,228.70
2022-10-06T22:48:58.302Z,227.50
2022-10-06T22:59:02.279Z,236.70
2022-10-06T23:09:06.956Z,223.80
2022-10-06T23:19:11.702Z,226.27
2022-10-06T23:29:16.528Z,225.37
2022-10-06T23:39:19.767Z,225.37
2022-10-06T23:49:24.403Z,226.47
2022-10-06T23:59:28.386Z,240.87
